Terminal Aerodrome Forecast
Issued by NWS

Home | Current Version | Previous Version | Text Only | Print | Product List | Glossary On
Versions: 1 2 3 4 5 6 7 8 9 10 11 12 13 14 15 16
000
FTUS45 KABQ 291700 RRA
TAFTCC
TAF
KTCC 291743Z 2918/3018 05012G20KT P6SM SCT070 BKN100
     FM292200 05012KT P6SM SCT050 BKN100
     FM300400 VRB05KT P6SM OVC040
     FM301200 36005KT P6SM VCSH OVC040
     FM301600 18006KT 3SM -RA BR OVC030=

USA.gov is the U.S. government's official web portal to all federal, state and local government web resources and services.